sensor_id;sensor_type;location;lat;lon;timestamp;pressure;altitude;pressure_sealevel;temperature;humidity
50125;BME280;36023;48.670;6.184;2022-11-11T00:02:09;100428.81;;;17.79;48.76
50125;BME280;36023;48.670;6.184;2022-11-11T00:04:53;100431.44;;;17.79;49.14
50125;BME280;36023;48.670;6.184;2022-11-11T00:07:38;100429.72;;;17.78;49.21
50125;BME280;36023;48.670;6.184;2022-11-11T00:10:22;100438.44;;;17.79;49.16
50125;BME280;36023;48.670;6.184;2022-11-11T00:13:06;100444.53;;;17.79;49.06
50125;BME280;36023;48.670;6.184;2022-11-11T00:15:52;100452.41;;;17.79;49.05
50125;BME280;36023;48.670;6.184;2022-11-11T00:18:36;100448.06;;;17.78;49.08
50125;BME280;36023;48.670;6.184;2022-11-11T00:21:41;100439.34;;;17.78;49.19
50125;BME280;36023;48.670;6.184;2022-11-11T00:24:29;100436.72;;;17.78;49.27
50125;BME280;36023;48.670;6.184;2022-11-11T00:27:33;100437.59;;;17.78;49.06
50125;BME280;36023;48.670;6.184;2022-11-11T00:30:17;100436.72;;;17.78;49.13
50125;BME280;36023;48.670;6.184;2022-11-11T00:33:01;100435.88;;;17.77;49.21
50125;BME280;36023;48.670;6.184;2022-11-11T00:35:45;100435.00;;;17.77;48.93
50125;BME280;36023;48.670;6.184;2022-11-11T00:38:40;100447.22;;;17.78;49.20
50125;BME280;36023;48.670;6.184;2022-11-11T00:41:31;100449.88;;;17.76;49.15
50125;BME280;36023;48.670;6.184;2022-11-11T00:44:16;100455.97;;;17.77;49.05
50125;BME280;36023;48.670;6.184;2022-11-11T00:47:00;100455.13;;;17.76;49.15
50125;BME280;36023;48.670;6.184;2022-11-11T00:50:05;100454.22;;;17.77;49.15
50125;BME280;36023;48.670;6.184;2022-11-11T00:53:15;100442.00;;;17.76;49.01
50125;BME280;36023;48.670;6.184;2022-11-11T00:56:03;100446.44;;;17.74;48.92
50125;BME280;36023;48.670;6.184;2022-11-11T00:58:47;100446.44;;;17.74;48.92
50125;BME280;36023;48.670;6.184;2022-11-11T01:01:33;100452.53;;;17.75;49.07
50125;BME280;36023;48.670;6.184;2022-11-11T01:04:18;100454.31;;;17.74;48.95
50125;BME280;36023;48.670;6.184;2022-11-11T01:07:02;100453.41;;;17.74;48.93
50125;BME280;36023;48.670;6.184;2022-11-11T01:09:46;100448.19;;;17.74;48.88
50125;BME280;36023;48.670;6.184;2022-11-11T01:12:33;100442.09;;;17.73;48.79
50125;BME280;36023;48.670;6.184;2022-11-11T01:15:17;100460.41;;;17.73;48.90
50125;BME280;36023;48.670;6.184;2022-11-11T01:18:02;100468.28;;;17.73;48.94
50125;BME280;36023;48.670;6.184;2022-11-11T01:20:47;100467.44;;;17.73;48.98
50125;BME280;36023;48.670;6.184;2022-11-11T01:23:34;100464.84;;;17.71;48.85
50125;BME280;36023;48.670;6.184;2022-11-11T01:26:21;100458.72;;;17.72;48.95
50125;BME280;36023;48.670;6.184;2022-11-11T01:29:05;100457.00;;;17.71;48.83
50125;BME280;36023;48.670;6.184;2022-11-11T01:31:49;100454.38;;;17.71;48.75
50125;BME280;36023;48.670;6.184;2022-11-11T01:34:34;100450.91;;;17.71;48.85
50125;BME280;36023;48.670;6.184;2022-11-11T01:37:19;100455.28;;;17.70;48.92
50125;BME280;36023;48.670;6.184;2022-11-11T01:40:03;100448.28;;;17.71;48.74
50125;BME280;36023;48.670;6.184;2022-11-11T01:42:50;100445.72;;;17.68;48.72
50125;BME280;36023;48.670;6.184;2022-11-11T01:48:42;100453.53;;;17.69;48.79
50125;BME280;36023;48.670;6.184;2022-11-11T01:52:02;100453.59;;;17.68;48.80
50125;BME280;36023;48.670;6.184;2022-11-11T01:54:55;100451.81;;;17.68;48.59
50125;BME280;36023;48.670;6.184;2022-11-11T01:57:56;100447.47;;;17.67;48.75
50125;BME280;36023;48.670;6.184;2022-11-11T02:00:43;100437.00;;;17.66;48.77
50125;BME280;36023;48.670;6.184;2022-11-11T02:03:29;100444.88;;;17.66;48.65
50125;BME280;36023;48.670;6.184;2022-11-11T02:06:14;100445.72;;;17.66;48.58
50125;BME280;36023;48.670;6.184;2022-11-11T02:09:01;100451.88;;;17.65;48.77
50125;BME280;36023;48.670;6.184;2022-11-11T02:11:46;100452.78;;;17.64;48.66
50125;BME280;36023;48.670;6.184;2022-11-11T02:14:51;100449.25;;;17.65;48.60
50125;BME280;36023;48.670;6.184;2022-11-11T02:17:37;100460.59;;;17.66;48.65
50125;BME280;36023;48.670;6.184;2022-11-11T02:20:25;100449.25;;;17.65;48.67
50125;BME280;36023;48.670;6.184;2022-11-11T02:23:17;100452.78;;;17.64;48.57
50125;BME280;36023;48.670;6.184;2022-11-11T02:26:05;100455.41;;;17.64;48.68
50125;BME280;36023;48.670;6.184;2022-11-11T02:28:53;100448.41;;;17.65;48.58
50125;BME280;36023;48.670;6.184;2022-11-11T02:31:38;100444.94;;;17.64;48.71
50125;BME280;36023;48.670;6.184;2022-11-11T02:34:32;100444.06;;;17.64;48.62
50125;BME280;36023;48.670;6.184;2022-11-11T02:37:22;100443.22;;;17.63;48.67
50125;BME280;36023;48.670;6.184;2022-11-11T02:40:07;100433.59;;;17.64;48.51
50125;BME280;36023;48.670;6.184;2022-11-11T02:42:54;100436.22;;;17.64;48.40
50125;BME280;36023;48.670;6.184;2022-11-11T02:45:39;100437.97;;;17.63;48.42
50125;BME280;36023;48.670;6.184;2022-11-11T02:48:24;100444.97;;;17.63;48.41
50125;BME280;36023;48.670;6.184;2022-11-11T02:51:08;100436.31;;;17.61;48.53
50125;BME280;36023;48.670;6.184;2022-11-11T02:53:53;100443.25;;;17.62;48.40
50125;BME280;36023;48.670;6.184;2022-11-11T02:56:46;100444.97;;;17.63;48.66
50125;BME280;36023;48.670;6.184;2022-11-11T02:59:49;100452.84;;;17.63;48.52
50125;BME280;36023;48.670;6.184;2022-11-11T03:02:34;100448.53;;;17.60;48.45
50125;BME280;36023;48.670;6.184;2022-11-11T03:05:18;100459.03;;;17.60;48.36
50125;BME280;36023;48.670;6.184;2022-11-11T03:08:03;100461.66;;;17.60;48.49
50125;BME280;36023;48.670;6.184;2022-11-11T03:10:47;100470.34;;;17.61;48.46
50125;BME280;36023;48.670;6.184;2022-11-11T03:13:31;100465.16;;;17.59;48.44
50125;BME280;36023;48.670;6.184;2022-11-11T03:16:17;100455.53;;;17.60;48.40
50125;BME280;36023;48.670;6.184;2022-11-11T03:19:20;100463.41;;;17.60;48.39
50125;BME280;36023;48.670;6.184;2022-11-11T03:22:05;100457.31;;;17.58;48.33
50125;BME280;36023;48.670;6.184;2022-11-11T03:24:50;100466.03;;;17.58;48.47
50125;BME280;36023;48.670;6.184;2022-11-11T03:27:53;100459.94;;;17.58;48.43
50125;BME280;36023;48.670;6.184;2022-11-11T03:30:40;100464.31;;;17.57;48.37
50125;BME280;36023;48.670;6.184;2022-11-11T03:33:24;100453.84;;;17.57;48.38
50125;BME280;36023;48.670;6.184;2022-11-11T03:36:08;100453.84;;;17.57;48.39
50125;BME280;36023;48.670;6.184;2022-11-11T03:38:53;100449.50;;;17.56;48.37
50125;BME280;36023;48.670;6.184;2022-11-11T03:41:37;100459.13;;;17.55;48.45
50125;BME280;36023;48.670;6.184;2022-11-11T03:44:21;100456.50;;;17.55;48.48
50125;BME280;36023;48.670;6.184;2022-11-11T03:47:05;100458.28;;;17.55;48.49
50125;BME280;36023;48.670;6.184;2022-11-11T03:49:50;100463.50;;;17.55;48.36
50125;BME280;36023;48.670;6.184;2022-11-11T03:52:34;100463.50;;;17.55;48.25
50125;BME280;36023;48.670;6.184;2022-11-11T03:55:18;100466.13;;;17.55;48.28
50125;BME280;36023;48.670;6.184;2022-11-11T03:58:03;100459.19;;;17.54;48.38
50125;BME280;36023;48.670;6.184;2022-11-11T04:00:48;100454.84;;;17.53;48.20
50125;BME280;36023;48.670;6.184;2022-11-11T04:03:32;100459.19;;;17.54;48.38
50125;BME280;36023;48.670;6.184;2022-11-11T04:06:35;100467.94;;;17.53;48.65
50125;BME280;36023;48.670;6.184;2022-11-11T04:09:38;100466.22;;;17.52;48.19
50125;BME280;36023;48.670;6.184;2022-11-11T04:12:41;100468.84;;;17.52;48.32
50125;BME280;36023;48.670;6.184;2022-11-11T04:15:44;100476.72;;;17.52;48.40
50125;BME280;36023;48.670;6.184;2022-11-11T04:18:47;100479.34;;;17.50;48.08
50125;BME280;36023;48.670;6.184;2022-11-11T04:21:50;100481.09;;;17.50;48.30
50125;BME280;36023;48.670;6.184;2022-11-11T04:24:36;100479.34;;;17.50;48.35
50125;BME280;36023;48.670;6.184;2022-11-11T04:27:39;100481.94;;;17.52;48.29
50125;BME280;36023;48.670;6.184;2022-11-11T04:30:23;100481.97;;;17.50;48.20
50125;BME280;36023;48.670;6.184;2022-11-11T04:33:08;100484.56;;;17.50;48.40
50125;BME280;36023;48.670;6.184;2022-11-11T04:35:53;100478.47;;;17.50;48.01
50125;BME280;36023;48.670;6.184;2022-11-11T04:38:37;100483.72;;;17.50;48.33
50125;BME280;36023;48.670;6.184;2022-11-11T04:41:40;100492.47;;;17.49;48.49
50125;BME280;36023;48.670;6.184;2022-11-11T04:44:24;100495.97;;;17.49;48.23
50125;BME280;36023;48.670;6.184;2022-11-11T04:47:29;100502.06;;;17.50;48.26
50125;BME280;36023;48.670;6.184;2022-11-11T04:50:13;100492.47;;;17.49;48.22
50125;BME280;36023;48.670;6.184;2022-11-11T04:52:58;100497.72;;;17.49;48.32
50125;BME280;36023;48.670;6.184;2022-11-11T04:55:44;100503.81;;;17.49;48.13
50125;BME280;36023;48.670;6.184;2022-11-11T04:58:47;100496.88;;;17.48;48.16
50125;BME280;36023;48.670;6.184;2022-11-11T05:01:51;100497.72;;;17.49;48.55
50125;BME280;36023;48.670;6.184;2022-11-11T05:04:55;100505.56;;;17.49;48.41
50125;BME280;36023;48.670;6.184;2022-11-11T05:07:39;100505.63;;;17.47;48.10
50125;BME280;36023;48.670;6.184;2022-11-11T05:10:42;100510.00;;;17.47;48.16
50125;BME280;36023;48.670;6.184;2022-11-11T05:13:27;100510.00;;;17.47;48.31
50125;BME280;36023;48.670;6.184;2022-11-11T05:16:32;100514.38;;;17.46;48.30
50125;BME280;36023;48.670;6.184;2022-11-11T05:19:36;100517.06;;;17.45;48.13
50125;BME280;36023;48.670;6.184;2022-11-11T05:22:41;100518.75;;;17.46;48.08
50125;BME280;36023;48.670;6.184;2022-11-11T05:25:27;100523.16;;;17.45;48.23
50125;BME280;36023;48.670;6.184;2022-11-11T05:28:16;100522.28;;;17.45;48.20
50125;BME280;36023;48.670;6.184;2022-11-11T05:31:00;100520.53;;;17.45;48.10
50125;BME280;36023;48.670;6.184;2022-11-11T05:33:45;100536.25;;;17.45;48.20
50125;BME280;36023;48.670;6.184;2022-11-11T05:36:29;100525.81;;;17.44;48.25
50125;BME280;36023;48.670;6.184;2022-11-11T05:39:13;100536.28;;;17.44;48.10
50125;BME280;36023;48.670;6.184;2022-11-11T05:41:57;100538.91;;;17.44;48.26
50125;BME280;36023;48.670;6.184;2022-11-11T05:44:42;100538.78;;;17.48;48.50
50125;BME280;36023;48.670;6.184;2022-11-11T05:47:26;100543.00;;;17.54;48.55
50125;BME280;36023;48.670;6.184;2022-11-11T05:50:11;100549.81;;;17.61;48.67
50125;BME280;36023;48.670;6.184;2022-11-11T05:52:55;100544.44;;;17.66;48.66
50125;BME280;36023;48.670;6.184;2022-11-11T05:55:39;100550.41;;;17.72;48.52
50125;BME280;36023;48.670;6.184;2022-11-11T05:58:25;100548.53;;;17.77;48.42
50125;BME280;36023;48.670;6.184;2022-11-11T06:01:09;100546.69;;;17.81;48.26
50125;BME280;36023;48.670;6.184;2022-11-11T06:03:53;100564.94;;;17.86;48.27
50125;BME280;36023;48.670;6.184;2022-11-11T06:06:38;100564.81;;;17.90;48.30
50125;BME280;36023;48.670;6.184;2022-11-11T06:09:22;100570.88;;;17.92;48.23
50125;BME280;36023;48.670;6.184;2022-11-11T06:12:06;100572.50;;;17.96;47.88
50125;BME280;36023;48.670;6.184;2022-11-11T06:14:51;100570.69;;;18.00;47.85
50125;BME280;36023;48.670;6.184;2022-11-11T06:17:35;100566.25;;;18.02;47.99
50125;BME280;36023;48.670;6.184;2022-11-11T06:20:21;100560.91;;;18.05;47.94
50125;BME280;36023;48.670;6.184;2022-11-11T06:23:05;100569.63;;;18.07;48.02
50125;BME280;36023;48.670;6.184;2022-11-11T06:25:50;100563.47;;;18.08;47.95
50125;BME280;36023;48.670;6.184;2022-11-11T06:28:55;100571.22;;;18.11;47.88
50125;BME280;36023;48.670;6.184;2022-11-11T06:31:39;100564.22;;;18.12;47.80
50125;BME280;36023;48.670;6.184;2022-11-11T06:34:23;100572.94;;;18.12;47.89
50125;BME280;36023;48.670;6.184;2022-11-11T06:37:07;100568.50;;;18.16;47.73
50125;BME280;36023;48.670;6.184;2022-11-11T06:39:51;100568.44;;;18.17;47.70
50125;BME280;36023;48.670;6.184;2022-11-11T06:42:36;100571.88;;;18.19;47.70
50125;BME280;36023;48.670;6.184;2022-11-11T06:45:21;100573.59;;;18.22;47.75
50125;BME280;36023;48.670;6.184;2022-11-11T06:48:06;100583.16;;;18.23;47.72
50125;BME280;36023;48.670;6.184;2022-11-11T06:50:50;100582.22;;;18.25;47.73
50125;BME280;36023;48.670;6.184;2022-11-11T06:53:34;100582.16;;;18.27;47.53
50125;BME280;36023;48.670;6.184;2022-11-11T06:56:19;100584.78;;;18.27;47.63
50125;BME280;36023;48.670;6.184;2022-11-11T06:59:05;100591.72;;;18.29;47.50
50125;BME280;36023;48.670;6.184;2022-11-11T07:01:50;100593.44;;;18.30;47.58
50125;BME280;36023;48.670;6.184;2022-11-11T07:04:34;100582.91;;;18.32;47.59
50125;BME280;36023;48.670;6.184;2022-11-11T07:07:18;100594.25;;;18.32;47.55
50125;BME280;36023;48.670;6.184;2022-11-11T07:10:03;100593.34;;;18.33;47.50
50125;BME280;36023;48.670;6.184;2022-11-11T07:12:50;100599.44;;;18.34;47.41
50125;BME280;36023;48.670;6.184;2022-11-11T07:15:36;100592.41;;;18.36;47.46
50125;BME280;36023;48.670;6.184;2022-11-11T07:18:20;100593.28;;;18.36;47.42
50125;BME280;36023;48.670;6.184;2022-11-11T07:21:04;100592.38;;;18.37;47.43
50125;BME280;36023;48.670;6.184;2022-11-11T07:23:48;100592.38;;;18.37;47.38
50125;BME280;36023;48.670;6.184;2022-11-11T07:26:34;100605.44;;;18.39;47.20
50125;BME280;36023;48.670;6.184;2022-11-11T07:29:18;100604.59;;;18.38;47.32
50125;BME280;36023;48.670;6.184;2022-11-11T07:32:03;100604.53;;;18.40;47.29
50125;BME280;36023;48.670;6.184;2022-11-11T07:34:47;100602.78;;;18.41;47.53
50125;BME280;36023;48.670;6.184;2022-11-11T07:37:35;100600.16;;;18.41;47.37
50125;BME280;36023;48.670;6.184;2022-11-11T07:40:20;100608.03;;;18.41;47.21
50125;BME280;36023;48.670;6.184;2022-11-11T07:43:04;100610.63;;;18.41;47.28
50125;BME280;36023;48.670;6.184;2022-11-11T07:45:49;100615.88;;;18.41;47.16
50125;BME280;36023;48.670;6.184;2022-11-11T07:48:33;100614.97;;;18.42;47.12
50125;BME280;36023;48.670;6.184;2022-11-11T07:51:17;100612.34;;;18.42;47.19
50125;BME280;36023;48.670;6.184;2022-11-11T07:54:02;100616.75;;;18.41;47.26
50125;BME280;36023;48.670;6.184;2022-11-11T07:56:46;100609.72;;;18.42;47.19
50125;BME280;36023;48.670;6.184;2022-11-11T07:59:31;100618.50;;;18.41;47.14
50125;BME280;36023;48.670;6.184;2022-11-11T08:02:15;100619.41;;;18.40;47.07
50125;BME280;36023;48.670;6.184;2022-11-11T08:05:00;100609.84;;;18.38;47.24
50125;BME280;36023;48.670;6.184;2022-11-11T08:07:44;100615.94;;;18.39;47.15
50125;BME280;36023;48.670;6.184;2022-11-11T08:10:29;100617.75;;;18.37;47.09
50125;BME280;36023;48.670;6.184;2022-11-11T08:13:13;100617.75;;;18.35;47.04
50125;BME280;36023;48.670;6.184;2022-11-11T08:16:17;100619.53;;;18.35;47.18
50125;BME280;36023;48.670;6.184;2022-11-11T08:19:01;100622.16;;;18.35;47.15
50125;BME280;36023;48.670;6.184;2022-11-11T08:21:46;100622.25;;;18.32;47.05
50125;BME280;36023;48.670;6.184;2022-11-11T08:24:30;100624.91;;;18.30;47.05
50125;BME280;36023;48.670;6.184;2022-11-11T08:27:15;100621.50;;;18.27;47.23
50125;BME280;36023;48.670;6.184;2022-11-11T08:30:00;100619.78;;;18.26;47.17
50125;BME280;36023;48.670;6.184;2022-11-11T08:32:44;100624.22;;;18.24;47.08
50125;BME280;36023;48.670;6.184;2022-11-11T08:35:29;100632.13;;;18.22;47.14
50125;BME280;36023;48.670;6.184;2022-11-11T08:38:13;100634.78;;;18.21;47.22
50125;BME280;36023;48.670;6.184;2022-11-11T08:40:59;100630.44;;;18.20;47.27
50125;BME280;36023;48.670;6.184;2022-11-11T08:43:44;100624.38;;;18.18;47.31
50125;BME280;36023;48.670;6.184;2022-11-11T08:46:28;100624.38;;;18.18;47.24
50125;BME280;36023;48.670;6.184;2022-11-11T08:49:12;100631.38;;;18.17;47.23
50125;BME280;36023;48.670;6.184;2022-11-11T08:51:57;100621.81;;;18.16;47.35
50125;BME280;36023;48.670;6.184;2022-11-11T08:54:41;100627.03;;;18.16;47.25
50125;BME280;36023;48.670;6.184;2022-11-11T08:57:25;100626.19;;;18.16;46.98
50125;BME280;36023;48.670;6.184;2022-11-11T09:00:11;100627.03;;;18.16;47.25
50125;BME280;36023;48.670;6.184;2022-11-11T09:03:00;100622.75;;;18.14;47.31
50125;BME280;36023;48.670;6.184;2022-11-11T09:05:44;100632.28;;;18.16;47.36
50125;BME280;36023;48.670;6.184;2022-11-11T09:08:30;100627.94;;;18.15;47.28
50125;BME280;36023;48.670;6.184;2022-11-11T09:11:14;100626.19;;;18.16;47.42
50125;BME280;36023;48.670;6.184;2022-11-11T09:13:59;100629.66;;;18.16;47.29
50125;BME280;36023;48.670;6.184;2022-11-11T09:16:45;100627.91;;;18.17;47.24
50125;BME280;36023;48.670;6.184;2022-11-11T09:19:29;100627.91;;;18.17;47.32
50125;BME280;36023;48.670;6.184;2022-11-11T09:22:14;100624.47;;;18.15;47.38
50125;BME280;36023;48.670;6.184;2022-11-11T09:24:58;100626.03;;;18.20;47.32
50125;BME280;36023;48.670;6.184;2022-11-11T09:27:43;100622.56;;;18.21;47.21
50125;BME280;36023;48.670;6.184;2022-11-11T09:30:28;100629.56;;;18.19;47.09
50125;BME280;36023;48.670;6.184;2022-11-11T09:33:12;100619.13;;;18.18;47.34
50125;BME280;36023;48.670;6.184;2022-11-11T09:35:59;100621.75;;;18.18;47.22
50125;BME280;36023;48.670;6.184;2022-11-11T09:38:43;100626.13;;;18.17;47.23
50125;BME280;36023;48.670;6.184;2022-11-11T09:48:24;100626.19;;;18.16;47.17
50125;BME280;36023;48.670;6.184;2022-11-11T09:51:21;100630.56;;;18.15;47.14
50125;BME280;36023;48.670;6.184;2022-11-11T09:54:13;100624.44;;;18.16;47.30
50125;BME280;36023;48.670;6.184;2022-11-11T09:57:08;100623.53;;;18.17;47.14
50125;BME280;36023;48.670;6.184;2022-11-11T09:59:58;100633.16;;;18.17;47.14
50125;BME280;36023;48.670;6.184;2022-11-11T10:03:38;100617.41;;;18.17;47.20
50125;BME280;36023;48.670;6.184;2022-11-11T10:06:06;100620.00;;;18.18;47.22
50125;BME280;36023;48.670;6.184;2022-11-11T10:08:57;100613.88;;;18.18;47.19
50125;BME280;36023;48.670;6.184;2022-11-11T10:11:53;100611.25;;;18.18;47.17
50125;BME280;36023;48.670;6.184;2022-11-11T10:14:43;100614.75;;;18.18;47.25
50125;BME280;36023;48.670;6.184;2022-11-11T10:20:30;100620.84;;;18.19;47.08
50125;BME280;36023;48.670;6.184;2022-11-11T10:23:17;100626.03;;;18.20;47.17
50125;BME280;36023;48.670;6.184;2022-11-11T10:26:38;100623.44;;;18.20;47.08
50125;BME280;36023;48.670;6.184;2022-11-11T10:29:25;100616.41;;;18.21;47.08
50125;BME280;36023;48.670;6.184;2022-11-11T10:32:25;100620.81;;;18.20;46.92
50125;BME280;36023;48.670;6.184;2022-11-11T10:35:17;100610.31;;;18.20;47.02
50125;BME280;36023;48.670;6.184;2022-11-11T10:40:57;100617.31;;;18.21;47.12
50125;BME280;36023;48.670;6.184;2022-11-11T10:43:45;100610.34;;;18.19;47.09
50125;BME280;36023;48.670;6.184;2022-11-11T10:46:35;100607.69;;;18.20;46.98
50125;BME280;36023;48.670;6.184;2022-11-11T10:49:23;100607.75;;;18.19;47.09
50125;BME280;36023;48.670;6.184;2022-11-11T10:55:00;100598.16;;;18.18;47.19
50125;BME280;36023;48.670;6.184;2022-11-11T10:58:06;100600.66;;;18.22;47.45
50125;BME280;36023;48.670;6.184;2022-11-11T11:00:56;100599.72;;;18.25;47.88
50125;BME280;36023;48.670;6.184;2022-11-11T11:03:45;100603.16;;;18.27;48.08
50125;BME280;36023;48.670;6.184;2022-11-11T11:06:34;100598.75;;;18.29;48.25
50125;BME280;36023;48.670;6.184;2022-11-11T11:09:29;100593.44;;;18.30;48.44
50125;BME280;36023;48.670;6.184;2022-11-11T11:12:25;100591.72;;;18.29;48.78
50125;BME280;36023;48.670;6.184;2022-11-11T11:15:17;100584.75;;;18.28;48.78
50125;BME280;36023;48.670;6.184;2022-11-11T11:18:07;100581.25;;;18.28;49.14
50125;BME280;36023;48.670;6.184;2022-11-11T11:21:04;100583.06;;;18.26;49.17
50125;BME280;36023;48.670;6.184;2022-11-11T11:23:49;100579.59;;;18.25;49.36
50125;BME280;36023;48.670;6.184;2022-11-11T11:26:44;100575.31;;;18.23;49.55
50125;BME280;36023;48.670;6.184;2022-11-11T11:32:16;100565.03;;;18.15;49.65
50125;BME280;36023;48.670;6.184;2022-11-11T11:35:01;100559.84;;;18.12;49.60
50125;BME280;36023;48.670;6.184;2022-11-11T11:37:49;100560.78;;;18.09;49.56
50125;BME280;36023;48.670;6.184;2022-11-11T11:40:54;100561.69;;;18.08;49.81
50125;BME280;36023;48.670;6.184;2022-11-11T11:43:40;100559.13;;;18.07;49.61
50125;BME280;36023;48.670;6.184;2022-11-11T11:46:37;100554.81;;;18.04;49.65
50125;BME280;36023;48.670;6.184;2022-11-11T12:10:48;100550.63;;;17.97;49.38
50125;BME280;36023;48.670;6.184;2022-11-11T12:16:52;100545.47;;;17.94;49.53
50125;BME280;36023;48.670;6.184;2022-11-11T12:22:51;100553.38;;;17.93;49.42
50125;BME280;36023;48.670;6.184;2022-11-11T12:25:51;100549.91;;;17.92;49.52
50125;BME280;36023;48.670;6.184;2022-11-11T12:35:48;100536.91;;;17.88;49.56
50125;BME280;36023;48.670;6.184;2022-11-11T12:47:44;100528.28;;;17.84;49.58
50125;BME280;36023;48.670;6.184;2022-11-11T12:53:40;100517.00;;;17.80;49.72
50125;BME280;36023;48.670;6.184;2022-11-11T12:56:43;100511.78;;;17.80;49.69
50125;BME280;36023;48.670;6.184;2022-11-11T12:59:37;100514.44;;;17.79;49.58
50125;BME280;36023;48.670;6.184;2022-11-11T13:11:38;100516.28;;;17.75;49.63
50125;BME280;36023;48.670;6.184;2022-11-11T13:14:47;100518.06;;;17.75;49.82
50125;BME280;36023;48.670;6.184;2022-11-11T13:17:32;100530.31;;;17.74;49.84
50125;BME280;36023;48.670;6.184;2022-11-11T13:20:20;100523.28;;;17.75;49.65
50125;BME280;36023;48.670;6.184;2022-11-11T13:23:10;100527.69;;;17.74;49.80
50125;BME280;36023;48.670;6.184;2022-11-11T13:25:59;100521.59;;;17.72;49.73
50125;BME280;36023;48.670;6.184;2022-11-11T13:28:48;100523.31;;;17.73;49.72
50125;BME280;36023;48.670;6.184;2022-11-11T13:31:35;100518.97;;;17.72;49.70
50125;BME280;36023;48.670;6.184;2022-11-11T13:34:21;100521.59;;;17.72;49.69
50125;BME280;36023;48.670;6.184;2022-11-11T13:37:07;100525.97;;;17.72;49.86
50125;BME280;36023;48.670;6.184;2022-11-11T13:40:07;100525.94;;;17.73;49.78
50125;BME280;36023;48.670;6.184;2022-11-11T13:42:53;100526.84;;;17.72;49.81
50125;BME280;36023;48.670;6.184;2022-11-11T13:45:40;100519.88;;;17.71;49.85
50125;BME280;36023;48.670;6.184;2022-11-11T13:48:34;100529.44;;;17.72;50.02
50125;BME280;36023;48.670;6.184;2022-11-11T13:54:25;100530.31;;;17.74;50.31
50125;BME280;36023;48.670;6.184;2022-11-11T14:00:02;100527.59;;;17.77;50.32
50125;BME280;36023;48.670;6.184;2022-11-11T14:08:57;100527.34;;;17.87;50.41
50125;BME280;36023;48.670;6.184;2022-11-11T14:11:41;100524.63;;;17.90;50.55
50125;BME280;36023;48.670;6.184;2022-11-11T14:17:13;100521.13;;;17.91;50.57
50125;BME280;36023;48.670;6.184;2022-11-11T14:19:58;100523.69;;;17.92;50.56
50125;BME280;36023;48.670;6.184;2022-11-11T14:23:23;100523.66;;;17.94;50.62
50125;BME280;36023;48.670;6.184;2022-11-11T14:28:56;100534.09;;;17.95;50.60
50125;BME280;36023;48.670;6.184;2022-11-11T14:31:59;100530.56;;;17.96;50.67
50125;BME280;36023;48.670;6.184;2022-11-11T14:35:00;100536.66;;;17.97;50.41
50125;BME280;36023;48.670;6.184;2022-11-11T14:40:48;100532.28;;;17.97;50.51
50125;BME280;36023;48.670;6.184;2022-11-11T14:43:38;100534.09;;;17.95;50.59
50125;BME280;36023;48.670;6.184;2022-11-11T14:46:23;100528.84;;;17.95;50.46
50125;BME280;36023;48.670;6.184;2022-11-11T14:49:07;100534.09;;;17.95;50.46
50125;BME280;36023;48.670;6.184;2022-11-11T14:52:00;100534.13;;;17.94;50.50
50125;BME280;36023;48.670;6.184;2022-11-11T15:00:47;100534.13;;;17.94;50.47
50125;BME280;36023;48.670;6.184;2022-11-11T15:03:37;100535.91;;;17.93;50.64
50125;BME280;36023;48.670;6.184;2022-11-11T15:06:34;100528.94;;;17.92;50.65
50125;BME280;36023;48.670;6.184;2022-11-11T15:10:00;100528.94;;;17.92;50.53
50125;BME280;36023;48.670;6.184;2022-11-11T15:13:03;100529.00;;;17.91;50.45
50125;BME280;36023;48.670;6.184;2022-11-11T15:16:28;100526.44;;;17.88;50.49
50125;BME280;36023;48.670;6.184;2022-11-11T15:25:36;100521.34;;;17.81;50.46
50125;BME280;36023;48.670;6.184;2022-11-11T15:34:59;100512.72;;;17.78;50.42
50125;BME280;36023;48.670;6.184;2022-11-11T15:37:53;100517.09;;;17.77;50.36
50125;BME280;36023;48.670;6.184;2022-11-11T15:40:57;100509.25;;;17.77;50.24
50125;BME280;36023;48.670;6.184;2022-11-11T15:43:43;100511.91;;;17.76;50.13
50125;BME280;36023;48.670;6.184;2022-11-11T15:46:35;100511.06;;;17.75;50.30
50125;BME280;36023;48.670;6.184;2022-11-11T15:49:48;100511.91;;;17.76;50.28
50125;BME280;36023;48.670;6.184;2022-11-11T15:52:34;100511.06;;;17.75;50.05
50125;BME280;36023;48.670;6.184;2022-11-11T15:55:25;100524.06;;;17.78;50.22
50125;BME280;36023;48.670;6.184;2022-11-11T16:01:00;100517.06;;;17.79;50.28
50125;BME280;36023;48.670;6.184;2022-11-11T16:03:47;100523.16;;;17.79;50.18
50125;BME280;36023;48.670;6.184;2022-11-11T16:06:34;100522.22;;;17.82;50.09
50125;BME280;36023;48.670;6.184;2022-11-11T16:09:25;100513.47;;;17.83;50.28
50125;BME280;36023;48.670;6.184;2022-11-11T16:12:12;100509.09;;;17.84;50.17
50125;BME280;36023;48.670;6.184;2022-11-11T16:14:59;100516.00;;;17.86;50.44
50125;BME280;36023;48.670;6.184;2022-11-11T16:17:48;100515.13;;;17.86;50.31
50125;BME280;36023;48.670;6.184;2022-11-11T16:20:39;100514.13;;;17.90;50.38
50125;BME280;36023;48.670;6.184;2022-11-11T16:23:25;100513.22;;;17.92;50.68
50125;BME280;36023;48.670;6.184;2022-11-11T16:26:10;100506.94;;;17.98;50.99
50125;BME280;36023;48.670;6.184;2022-11-11T16:28:55;100504.19;;;18.02;51.19
50125;BME280;36023;48.670;6.184;2022-11-11T16:31:42;100511.06;;;18.06;51.48
50125;BME280;36023;48.670;6.184;2022-11-11T16:37:13;100504.75;;;18.14;52.48
50125;BME280;36023;48.670;6.184;2022-11-11T16:40:31;100510.72;;;18.19;53.01
50125;BME280;36023;48.670;6.184;2022-11-11T16:43:18;100503.66;;;18.21;53.63
50125;BME280;36023;48.670;6.184;2022-11-11T16:46:06;100508.91;;;18.21;53.81
50125;BME280;36023;48.670;6.184;2022-11-11T16:48:52;100513.28;;;18.20;54.18